sensor_id;sensor_type;location;lat;lon;timestamp;pressure;altitude;pressure_sealevel;temperature;humidity
4469;BME280;2247;42.666;23.292;2023-04-07T00:01:33;94086.28;;;8.41;37.85
4469;BME280;2247;42.666;23.292;2023-04-07T00:04:00;94078.66;;;8.44;37.61
4469;BME280;2247;42.666;23.292;2023-04-07T00:06:30;94083.66;;;8.30;37.82
4469;BME280;2247;42.666;23.292;2023-04-07T00:08:57;94077.63;;;8.40;37.68
4469;BME280;2247;42.666;23.292;2023-04-07T00:11:23;94080.78;;;8.22;38.03
4469;BME280;2247;42.666;23.292;2023-04-07T00:13:50;94084.19;;;8.43;37.64
4469;BME280;2247;42.666;23.292;2023-04-07T00:16:17;94077.91;;;8.34;37.65
4469;BME280;2247;42.666;23.292;2023-04-07T00:18:44;94072.13;;;8.37;37.96
4469;BME280;2247;42.666;23.292;2023-04-07T00:21:11;94071.06;;;8.43;37.46
4469;BME280;2247;42.666;23.292;2023-04-07T00:23:39;94056.34;;;8.52;37.58
4469;BME280;2247;42.666;23.292;2023-04-07T00:26:07;94071.03;;;8.63;37.53
4469;BME280;2247;42.666;23.292;2023-04-07T00:28:34;94070.28;;;8.42;37.57
4469;BME280;2247;42.666;23.292;2023-04-07T00:31:02;94059.00;;;8.42;37.38
4469;BME280;2247;42.666;23.292;2023-04-07T00:33:28;94070.00;;;8.39;37.60
4469;BME280;2247;42.666;23.292;2023-04-07T00:35:55;94072.09;;;8.47;37.63
4469;BME280;2247;42.666;23.292;2023-04-07T00:38:23;94046.66;;;8.37;37.25
4469;BME280;2247;42.666;23.292;2023-04-07T00:40:56;94058.47;;;8.40;37.23
4469;BME280;2247;42.666;23.292;2023-04-07T00:43:23;94062.69;;;8.36;37.90
4469;BME280;2247;42.666;23.292;2023-04-07T00:45:50;94071.31;;;8.46;37.55
4469;BME280;2247;42.666;23.292;2023-04-07T00:48:17;94068.97;;;8.40;37.71
4469;BME280;2247;42.666;23.292;2023-04-07T00:50:44;94073.16;;;8.46;37.85
4469;BME280;2247;42.666;23.292;2023-04-07T00:53:11;94077.09;;;8.48;37.76
4469;BME280;2247;42.666;23.292;2023-04-07T00:55:39;94083.66;;;8.25;38.23
4469;BME280;2247;42.666;23.292;2023-04-07T00:58:07;94068.44;;;8.38;37.97
4469;BME280;2247;42.666;23.292;2023-04-07T01:00:40;94073.69;;;8.27;38.10
4469;BME280;2247;42.666;23.292;2023-04-07T01:03:11;94075.00;;;8.35;37.87
4469;BME280;2247;42.666;23.292;2023-04-07T01:05:45;94072.63;;;8.44;37.81
4469;BME280;2247;42.666;23.292;2023-04-07T01:08:20;94076.84;;;8.35;37.76
4469;BME280;2247;42.666;23.292;2023-04-07T01:10:51;94066.84;;;8.57;37.57
4469;BME280;2247;42.666;23.292;2023-04-07T01:13:26;94058.97;;;8.57;37.16
4469;BME280;2247;42.666;23.292;2023-04-07T01:15:54;94056.38;;;8.42;37.66
4469;BME280;2247;42.666;23.292;2023-04-07T01:18:27;94054.78;;;8.56;37.41
4469;BME280;2247;42.666;23.292;2023-04-07T01:20:59;94056.06;;;8.63;37.41
4469;BME280;2247;42.666;23.292;2023-04-07T01:23:47;94056.34;;;8.62;37.28
4469;BME280;2247;42.666;23.292;2023-04-07T01:26:20;94038.47;;;8.54;37.40
4469;BME280;2247;42.666;23.292;2023-04-07T01:29:06;94022.75;;;8.39;37.05
4469;BME280;2247;42.666;23.292;2023-04-07T01:31:39;94059.22;;;8.60;37.18
4469;BME280;2247;42.666;23.292;2023-04-07T01:34:08;94054.00;;;8.50;37.68
4469;BME280;2247;42.666;23.292;2023-04-07T01:36:35;94048.47;;;8.52;37.51
4469;BME280;2247;42.666;23.292;2023-04-07T01:39:03;94051.59;;;8.69;37.17
4469;BME280;2247;42.666;23.292;2023-04-07T01:41:32;94046.28;;;8.79;36.77
4469;BME280;2247;42.666;23.292;2023-04-07T01:44:00;94045.22;;;8.85;36.45
4469;BME280;2247;42.666;23.292;2023-04-07T01:46:27;94039.97;;;8.85;36.35
4469;BME280;2247;42.666;23.292;2023-04-07T01:48:56;94035.84;;;8.54;36.90
4469;BME280;2247;42.666;23.292;2023-04-07T01:51:24;94049.25;;;8.52;36.68
4469;BME280;2247;42.666;23.292;2023-04-07T01:53:52;94034.81;;;8.24;37.43
4469;BME280;2247;42.666;23.292;2023-04-07T01:56:19;94043.00;;;8.08;37.25
4469;BME280;2247;42.666;23.292;2023-04-07T01:58:46;94037.22;;;8.01;37.68
4469;BME280;2247;42.666;23.292;2023-04-07T02:01:13;94044.53;;;7.88;38.48
4469;BME280;2247;42.666;23.292;2023-04-07T02:03:43;94031.72;;;7.87;38.74
4469;BME280;2247;42.666;23.292;2023-04-07T02:06:18;94023.28;;;8.10;37.64
4469;BME280;2247;42.666;23.292;2023-04-07T02:08:50;94031.72;;;8.07;37.34
4469;BME280;2247;42.666;23.292;2023-04-07T02:11:20;94024.09;;;8.21;36.95
4469;BME280;2247;42.666;23.292;2023-04-07T02:13:48;94026.97;;;8.19;36.85
4469;BME280;2247;42.666;23.292;2023-04-07T02:16:16;94030.63;;;8.23;36.82
4469;BME280;2247;42.666;23.292;2023-04-07T02:18:46;94030.88;;;8.47;36.24
4469;BME280;2247;42.666;23.292;2023-04-07T02:21:14;94022.25;;;8.37;36.23
4469;BME280;2247;42.666;23.292;2023-04-07T02:23:42;94026.16;;;8.44;36.12
4469;BME280;2247;42.666;23.292;2023-04-07T02:26:09;94036.38;;;8.51;35.99
4469;BME280;2247;42.666;23.292;2023-04-07T02:28:36;94032.16;;;8.65;35.93
4469;BME280;2247;42.666;23.292;2023-04-07T02:31:03;94024.22;;;8.80;35.26
4469;BME280;2247;42.666;23.292;2023-04-07T02:33:30;94035.84;;;8.64;35.44
4469;BME280;2247;42.666;23.292;2023-04-07T02:35:56;94036.88;;;8.58;35.73
4469;BME280;2247;42.666;23.292;2023-04-07T02:38:25;94041.38;;;8.57;35.97
4469;BME280;2247;42.666;23.292;2023-04-07T02:40:51;94041.66;;;8.56;35.98
4469;BME280;2247;42.666;23.292;2023-04-07T02:43:19;94038.19;;;8.65;35.69
4469;BME280;2247;42.666;23.292;2023-04-07T02:45:46;94039.78;;;8.61;35.60
4469;BME280;2247;42.666;23.292;2023-04-07T02:48:13;94036.41;;;8.41;36.20
4469;BME280;2247;42.666;23.292;2023-04-07T02:50:40;94042.69;;;8.24;36.79
4469;BME280;2247;42.666;23.292;2023-04-07T02:53:07;94042.69;;;8.24;37.15
4469;BME280;2247;42.666;23.292;2023-04-07T02:55:35;94039.56;;;8.43;36.88
4469;BME280;2247;42.666;23.292;2023-04-07T02:58:02;94042.16;;;8.63;36.30
4469;BME280;2247;42.666;23.292;2023-04-07T03:00:29;94048.97;;;8.69;35.85
4469;BME280;2247;42.666;23.292;2023-04-07T03:02:56;94052.34;;;8.75;35.51
4469;BME280;2247;42.666;23.292;2023-04-07T03:05:22;94056.34;;;8.62;35.89
4469;BME280;2247;42.666;23.292;2023-04-07T03:07:49;94052.31;;;8.80;35.59
4469;BME280;2247;42.666;23.292;2023-04-07T03:10:16;94036.34;;;8.66;35.63
4469;BME280;2247;42.666;23.292;2023-04-07T03:12:44;94058.13;;;8.77;35.67
4469;BME280;2247;42.666;23.292;2023-04-07T03:15:11;94048.16;;;8.74;36.04
4469;BME280;2247;42.666;23.292;2023-04-07T03:17:38;94056.53;;;8.81;36.08
4469;BME280;2247;42.666;23.292;2023-04-07T03:20:06;94057.06;;;8.83;36.04
4469;BME280;2247;42.666;23.292;2023-04-07T03:22:33;94049.41;;;8.96;35.65
4469;BME280;2247;42.666;23.292;2023-04-07T03:25:00;94049.63;;;9.00;35.43
4469;BME280;2247;42.666;23.292;2023-04-07T03:27:27;94049.69;;;8.90;35.56
4469;BME280;2247;42.666;23.292;2023-04-07T03:29:56;94048.56;;;9.01;35.27
4469;BME280;2247;42.666;23.292;2023-04-07T03:32:22;94045.44;;;8.94;35.37
4469;BME280;2247;42.666;23.292;2023-04-07T03:34:49;94042.59;;;8.90;35.15
4469;BME280;2247;42.666;23.292;2023-04-07T03:37:16;94038.63;;;8.93;35.52
4469;BME280;2247;42.666;23.292;2023-04-07T03:39:43;94040.97;;;8.99;35.32
4469;BME280;2247;42.666;23.292;2023-04-07T03:42:10;94041.28;;;8.88;35.66
4469;BME280;2247;42.666;23.292;2023-04-07T03:44:37;94043.63;;;8.94;35.61
4469;BME280;2247;42.666;23.292;2023-04-07T03:47:05;94044.66;;;8.93;35.81
4469;BME280;2247;42.666;23.292;2023-04-07T03:49:32;94043.66;;;8.79;35.99
4469;BME280;2247;42.666;23.292;2023-04-07T03:51:59;94050.75;;;8.84;36.11
4469;BME280;2247;42.666;23.292;2023-04-07T03:54:25;94040.59;;;8.57;36.54
4469;BME280;2247;42.666;23.292;2023-04-07T03:56:52;94045.28;;;8.70;36.53
4469;BME280;2247;42.666;23.292;2023-04-07T03:59:19;94055.56;;;8.56;36.62
4469;BME280;2247;42.666;23.292;2023-04-07T04:01:46;94050.81;;;8.63;36.65
4469;BME280;2247;42.666;23.292;2023-04-07T04:04:14;94039.75;;;8.66;36.46
4469;BME280;2247;42.666;23.292;2023-04-07T04:06:42;94053.47;;;8.48;36.93
4469;BME280;2247;42.666;23.292;2023-04-07T04:09:09;94042.72;;;8.29;37.01
4469;BME280;2247;42.666;23.292;2023-04-07T04:11:37;94052.13;;;8.51;36.77
4469;BME280;2247;42.666;23.292;2023-04-07T04:14:04;94057.34;;;8.76;36.03
4469;BME280;2247;42.666;23.292;2023-04-07T04:16:31;94053.66;;;8.77;35.73
4469;BME280;2247;42.666;23.292;2023-04-07T04:18:59;94060.53;;;8.58;36.00
4469;BME280;2247;42.666;23.292;2023-04-07T04:21:28;94051.41;;;8.35;36.51
4469;BME280;2247;42.666;23.292;2023-04-07T04:23:55;94055.59;;;8.36;36.94
4469;BME280;2247;42.666;23.292;2023-04-07T04:26:23;94066.31;;;8.55;36.56
4469;BME280;2247;42.666;23.292;2023-04-07T04:28:51;94047.16;;;8.44;36.63
4469;BME280;2247;42.666;23.292;2023-04-07T04:31:19;94067.38;;;8.54;36.19
4469;BME280;2247;42.666;23.292;2023-04-07T04:33:47;94050.59;;;8.40;36.53
4469;BME280;2247;42.666;23.292;2023-04-07T04:36:14;94070.25;;;8.52;36.23
4469;BME280;2247;42.666;23.292;2023-04-07T05:13:05;94092.84;;;8.63;36.58
4469;BME280;2247;42.666;23.292;2023-04-07T05:15:33;94096.25;;;8.59;36.35
4469;BME280;2247;42.666;23.292;2023-04-07T05:17:59;94103.09;;;8.50;36.56
4469;BME280;2247;42.666;23.292;2023-04-07T05:20:26;94097.78;;;8.80;36.03
4469;BME280;2247;42.666;23.292;2023-04-07T05:22:53;94082.06;;;8.60;36.04
4469;BME280;2247;42.666;23.292;2023-04-07T05:25:20;94098.03;;;8.79;35.84
4469;BME280;2247;42.666;23.292;2023-04-07T05:27:47;94103.53;;;8.87;36.21
4469;BME280;2247;42.666;23.292;2023-04-07T05:30:16;94114.75;;;9.18;37.01
4469;BME280;2247;42.666;23.292;2023-04-07T05:32:43;94119.84;;;8.89;40.73
4469;BME280;2247;42.666;23.292;2023-04-07T05:35:11;94116.75;;;8.42;41.90
4469;BME280;2247;42.666;23.292;2023-04-07T05:37:38;94124.88;;;8.50;42.10
4469;BME280;2247;42.666;23.292;2023-04-07T05:40:06;94116.66;;;8.92;41.28
4469;BME280;2247;42.666;23.292;2023-04-07T05:42:33;94119.84;;;8.89;41.75
4469;BME280;2247;42.666;23.292;2023-04-07T05:45:00;94115.34;;;8.95;42.13
4469;BME280;2247;42.666;23.292;2023-04-07T05:47:29;94108.97;;;9.16;41.34
4469;BME280;2247;42.666;23.292;2023-04-07T05:49:55;94107.94;;;9.07;40.96
4469;BME280;2247;42.666;23.292;2023-04-07T05:52:22;94123.72;;;9.12;40.72
4469;BME280;2247;42.666;23.292;2023-04-07T05:54:50;94112.38;;;9.17;40.84
4469;BME280;2247;42.666;23.292;2023-04-07T05:57:16;94115.84;;;9.12;41.17
4469;BME280;2247;42.666;23.292;2023-04-07T05:59:43;94105.44;;;9.46;39.60
4469;BME280;2247;42.666;23.292;2023-04-07T06:02:10;94114.81;;;9.62;36.63
4469;BME280;2247;42.666;23.292;2023-04-07T06:04:38;94103.53;;;9.57;36.08
4469;BME280;2247;42.666;23.292;2023-04-07T06:07:06;94105.03;;;9.73;34.86
4469;BME280;2247;42.666;23.292;2023-04-07T06:09:33;94109.00;;;9.70;35.06
4469;BME280;2247;42.666;23.292;2023-04-07T06:12:00;94107.88;;;9.81;36.66
4469;BME280;2247;42.666;23.292;2023-04-07T06:14:29;94115.66;;;9.97;37.58
4469;BME280;2247;42.666;23.292;2023-04-07T06:16:56;94120.97;;;10.31;37.46
4469;BME280;2247;42.666;23.292;2023-04-07T06:19:23;94105.53;;;10.82;35.56
4469;BME280;2247;42.666;23.292;2023-04-07T06:21:53;94105.16;;;10.93;33.83
4469;BME280;2247;42.666;23.292;2023-04-07T06:24:20;94098.25;;;11.21;32.67
4469;BME280;2247;42.666;23.292;2023-04-07T06:26:47;94078.28;;;11.15;32.28
4469;BME280;2247;42.666;23.292;2023-04-07T06:29:14;94102.81;;;11.58;32.42
4469;BME280;2247;42.666;23.292;2023-04-07T06:31:41;94108.56;;;11.84;32.07
4469;BME280;2247;42.666;23.292;2023-04-07T06:34:08;94104.03;;;12.08;31.12
4469;BME280;2247;42.666;23.292;2023-04-07T06:36:35;94107.66;;;12.12;30.71
4469;BME280;2247;42.666;23.292;2023-04-07T06:39:05;94108.91;;;12.34;31.35
4469;BME280;2247;42.666;23.292;2023-04-07T06:41:32;94110.03;;;12.46;30.38
4469;BME280;2247;42.666;23.292;2023-04-07T06:43:59;94099.13;;;12.34;30.00
4469;BME280;2247;42.666;23.292;2023-04-07T06:46:26;94090.09;;;12.21;30.02
4469;BME280;2247;42.666;23.292;2023-04-07T06:48:53;94104.59;;;12.05;30.78
4469;BME280;2247;42.666;23.292;2023-04-07T06:51:20;94110.88;;;12.09;30.49
4469;BME280;2247;42.666;23.292;2023-04-07T06:53:47;94111.00;;;11.80;31.22
4469;BME280;2247;42.666;23.292;2023-04-07T06:56:16;94114.38;;;11.86;31.16
4469;BME280;2247;42.666;23.292;2023-04-07T06:58:42;94120.22;;;12.20;31.08
4469;BME280;2247;42.666;23.292;2023-04-07T07:01:09;94112.63;;;12.33;30.59
4469;BME280;2247;42.666;23.292;2023-04-07T07:03:36;94117.47;;;12.26;30.79
4469;BME280;2247;42.666;23.292;2023-04-07T07:06:03;94112.19;;;12.44;30.01
4469;BME280;2247;42.666;23.292;2023-04-07T07:08:30;94126.94;;;12.64;30.37
4469;BME280;2247;42.666;23.292;2023-04-07T07:10:57;94134.59;;;12.79;29.75
4469;BME280;2247;42.666;23.292;2023-04-07T07:13:27;94123.25;;;12.79;29.80
4469;BME280;2247;42.666;23.292;2023-04-07T07:15:54;94123.72;;;12.81;30.06
4469;BME280;2247;42.666;23.292;2023-04-07T07:18:21;94115.16;;;12.56;29.70
4469;BME280;2247;42.666;23.292;2023-04-07T07:20:48;94122.25;;;12.42;29.95
4469;BME280;2247;42.666;23.292;2023-04-07T07:23:15;94119.25;;;12.49;30.26
4469;BME280;2247;42.666;23.292;2023-04-07T07:25:42;94122.06;;;12.71;30.13
4469;BME280;2247;42.666;23.292;2023-04-07T07:28:09;94116.66;;;12.62;30.10
4469;BME280;2247;42.666;23.292;2023-04-07T07:30:38;94119.25;;;12.49;30.42
4469;BME280;2247;42.666;23.292;2023-04-07T07:33:06;94126.44;;;12.30;30.24
4469;BME280;2247;42.666;23.292;2023-04-07T07:35:33;94130.84;;;12.15;30.31
4469;BME280;2247;42.666;23.292;2023-04-07T07:38:01;94137.97;;;11.77;30.79
4469;BME280;2247;42.666;23.292;2023-04-07T07:40:28;94136.28;;;11.63;31.10
4469;BME280;2247;42.666;23.292;2023-04-07T07:42:55;94146.91;;;11.58;31.81
4469;BME280;2247;42.666;23.292;2023-04-07T07:45:22;94150.31;;;11.58;32.10
4469;BME280;2247;42.666;23.292;2023-04-07T07:47:50;94151.03;;;11.64;31.37
4469;BME280;2247;42.666;23.292;2023-04-07T07:50:17;94139.16;;;11.66;31.48
4469;BME280;2247;42.666;23.292;2023-04-07T07:52:45;94145.69;;;11.69;31.00
4469;BME280;2247;42.666;23.292;2023-04-07T07:55:12;94142.06;;;11.65;31.67
4469;BME280;2247;42.666;23.292;2023-04-07T07:57:38;94144.81;;;11.78;31.70
4469;BME280;2247;42.666;23.292;2023-04-07T08:00:07;94147.50;;;11.73;31.60
4469;BME280;2247;42.666;23.292;2023-04-07T08:02:34;94146.94;;;11.76;31.50
4469;BME280;2247;42.666;23.292;2023-04-07T08:05:02;94148.75;;;11.81;31.43
4469;BME280;2247;42.666;23.292;2023-04-07T08:07:30;94148.19;;;11.84;31.29
4469;BME280;2247;42.666;23.292;2023-04-07T08:09:57;94156.19;;;11.98;31.62
4469;BME280;2247;42.666;23.292;2023-04-07T08:12:23;94154.31;;;11.98;31.09
4469;BME280;2247;42.666;23.292;2023-04-07T08:14:50;94154.25;;;12.03;31.21
4469;BME280;2247;42.666;23.292;2023-04-07T08:17:17;94149.91;;;12.12;30.84
4469;BME280;2247;42.666;23.292;2023-04-07T08:19:44;94149.63;;;12.14;30.92
4469;BME280;2247;42.666;23.292;2023-04-07T08:22:13;94147.00;;;12.14;30.89
4469;BME280;2247;42.666;23.292;2023-04-07T08:24:40;94148.41;;;12.06;30.97
4469;BME280;2247;42.666;23.292;2023-04-07T08:27:07;94139.97;;;12.04;31.52
4469;BME280;2247;42.666;23.292;2023-04-07T08:29:33;94144.84;;;11.97;31.16
4469;BME280;2247;42.666;23.292;2023-04-07T08:32:00;94161.09;;;12.04;31.35
4469;BME280;2247;42.666;23.292;2023-04-07T08:34:27;94154.63;;;12.15;33.29
4469;BME280;2247;42.666;23.292;2023-04-07T08:36:54;94146.13;;;12.18;33.86
4469;BME280;2247;42.666;23.292;2023-04-07T08:39:23;94149.97;;;12.26;33.10
4469;BME280;2247;42.666;23.292;2023-04-07T08:41:51;94146.13;;;12.37;31.10
4469;BME280;2247;42.666;23.292;2023-04-07T08:44:21;94144.69;;;12.26;31.41
4469;BME280;2247;42.666;23.292;2023-04-07T08:46:50;94135.00;;;12.21;31.90
4469;BME280;2247;42.666;23.292;2023-04-07T08:49:18;94136.63;;;12.17;31.81
4469;BME280;2247;42.666;23.292;2023-04-07T08:51:47;94145.13;;;12.14;31.56
4469;BME280;2247;42.666;23.292;2023-04-07T08:54:17;94144.13;;;12.29;31.08
4469;BME280;2247;42.666;23.292;2023-04-07T08:56:47;94150.69;;;12.32;30.58
4469;BME280;2247;42.666;23.292;2023-04-07T08:59:15;94144.13;;;12.29;30.68
4469;BME280;2247;42.666;23.292;2023-04-07T09:01:43;94148.53;;;12.34;30.82
4469;BME280;2247;42.666;23.292;2023-04-07T09:04:11;94145.41;;;12.50;31.37
4469;BME280;2247;42.666;23.292;2023-04-07T09:06:38;94137.78;;;12.62;31.30
4469;BME280;2247;42.666;23.292;2023-04-07T09:09:05;94145.81;;;12.57;30.69
4469;BME280;2247;42.666;23.292;2023-04-07T09:11:34;94139.81;;;12.52;30.16
4469;BME280;2247;42.666;23.292;2023-04-07T09:14:04;94147.38;;;12.40;32.41
4469;BME280;2247;42.666;23.292;2023-04-07T09:16:33;94148.13;;;12.27;31.07
4469;BME280;2247;42.666;23.292;2023-04-07T09:19:00;94141.25;;;12.44;37.88
4469;BME280;2247;42.666;23.292;2023-04-07T09:21:46;94153.28;;;12.69;32.20
4469;BME280;2247;42.666;23.292;2023-04-07T09:24:20;94153.91;;;12.93;33.48
4469;BME280;2247;42.666;23.292;2023-04-07T09:26:47;94148.22;;;13.19;32.94
4469;BME280;2247;42.666;23.292;2023-04-07T09:29:19;94143.09;;;13.09;32.40
4469;BME280;2247;42.666;23.292;2023-04-07T09:31:47;94151.00;;;12.95;30.22
4469;BME280;2247;42.666;23.292;2023-04-07T09:34:25;94153.38;;;12.64;30.08
4469;BME280;2247;42.666;23.292;2023-04-07T09:36:52;94163.31;;;12.35;30.46
4469;BME280;2247;42.666;23.292;2023-04-07T09:39:19;94160.78;;;12.30;31.08
4469;BME280;2247;42.666;23.292;2023-04-07T09:41:46;94142.13;;;12.21;30.60
4469;BME280;2247;42.666;23.292;2023-04-07T09:44:13;94158.97;;;12.25;30.99
4469;BME280;2247;42.666;23.292;2023-04-07T09:46:49;94158.97;;;12.44;30.87
4469;BME280;2247;42.666;23.292;2023-04-07T09:49:16;94158.72;;;12.59;30.97
4469;BME280;2247;42.666;23.292;2023-04-07T09:51:56;94159.50;;;12.78;30.93
4469;BME280;2247;42.666;23.292;2023-04-07T09:54:31;94161.22;;;12.69;30.87
4469;BME280;2247;42.666;23.292;2023-04-07T09:57:00;94164.75;;;12.46;31.43
4469;BME280;2247;42.666;23.292;2023-04-07T09:59:27;94165.56;;;12.60;31.93
4469;BME280;2247;42.666;23.292;2023-04-07T10:01:56;94153.56;;;12.68;31.44
4469;BME280;2247;42.666;23.292;2023-04-07T10:04:24;94149.16;;;12.63;31.02
4469;BME280;2247;42.666;23.292;2023-04-07T10:06:52;94148.19;;;12.40;31.18
4469;BME280;2247;42.666;23.292;2023-04-07T10:09:19;94149.84;;;12.36;31.35
4469;BME280;2247;42.666;23.292;2023-04-07T10:11:48;94157.69;;;12.22;31.05
4469;BME280;2247;42.666;23.292;2023-04-07T10:14:16;94162.69;;;12.24;31.49
4469;BME280;2247;42.666;23.292;2023-04-07T10:16:44;94160.88;;;12.38;31.18
4469;BME280;2247;42.666;23.292;2023-04-07T10:19:13;94154.03;;;12.56;31.20
4469;BME280;2247;42.666;23.292;2023-04-07T10:21:42;94164.34;;;12.71;30.89
4469;BME280;2247;42.666;23.292;2023-04-07T10:24:18;94167.25;;;12.56;31.72
4469;BME280;2247;42.666;23.292;2023-04-07T10:26:50;94160.19;;;12.51;31.60
4469;BME280;2247;42.666;23.292;2023-04-07T10:29:19;94157.88;;;12.45;31.53
4469;BME280;2247;42.666;23.292;2023-04-07T10:31:47;94163.59;;;12.33;31.81
4469;BME280;2247;42.666;23.292;2023-04-07T10:34:16;94158.19;;;12.24;32.17
4469;BME280;2247;42.666;23.292;2023-04-07T10:37:08;94175.31;;;12.27;32.05
4469;BME280;2247;42.666;23.292;2023-04-07T10:39:35;94164.75;;;12.46;31.74
4469;BME280;2247;42.666;23.292;2023-04-07T10:42:02;94162.81;;;12.51;31.22
4469;BME280;2247;42.666;23.292;2023-04-07T10:44:46;94169.03;;;12.42;31.51
4469;BME280;2247;42.666;23.292;2023-04-07T10:47:14;94170.84;;;12.28;32.72
4469;BME280;2247;42.666;23.292;2023-04-07T10:50:16;94178.00;;;12.03;33.84
4469;BME280;2247;42.666;23.292;2023-04-07T10:52:44;94166.72;;;11.79;34.35
4469;BME280;2247;42.666;23.292;2023-04-07T10:55:28;94178.63;;;11.76;34.59
4469;BME280;2247;42.666;23.292;2023-04-07T10:58:15;94178.63;;;11.76;34.56
4469;BME280;2247;42.666;23.292;2023-04-07T11:03:58;94165.97;;;11.50;35.20
4469;BME280;2247;42.666;23.292;2023-04-07T11:06:26;94188.94;;;11.73;35.10
4469;BME280;2247;42.666;23.292;2023-04-07T11:08:54;94177.78;;;11.81;34.67
4469;BME280;2247;42.666;23.292;2023-04-07T11:11:38;94168.53;;;11.60;34.70
4469;BME280;2247;42.666;23.292;2023-04-07T11:14:06;94186.88;;;11.70;35.12
4469;BME280;2247;42.666;23.292;2023-04-07T11:16:38;94175.81;;;11.44;35.62
4469;BME280;2247;42.666;23.292;2023-04-07T11:19:05;94178.38;;;11.49;35.68
4469;BME280;2247;42.666;23.292;2023-04-07T11:21:34;94195.59;;;11.47;35.82
4469;BME280;2247;42.666;23.292;2023-04-07T11:24:01;94190.13;;;11.62;35.62
4469;BME280;2247;42.666;23.292;2023-04-07T11:26:36;94186.59;;;11.71;35.78
4469;BME280;2247;42.666;23.292;2023-04-07T11:29:03;94191.56;;;11.78;35.87
4469;BME280;2247;42.666;23.292;2023-04-07T11:31:30;94177.78;;;11.81;35.54
4469;BME280;2247;42.666;23.292;2023-04-07T11:33:59;94193.53;;;12.10;35.50
4469;BME280;2247;42.666;23.292;2023-04-07T11:36:28;94192.31;;;12.02;35.28
4469;BME280;2247;42.666;23.292;2023-04-07T11:38:57;94192.63;;;11.77;35.70
4469;BME280;2247;42.666;23.292;2023-04-07T11:41:24;94194.34;;;11.39;36.44
4469;BME280;2247;42.666;23.292;2023-04-07T11:44:07;94204.09;;;11.38;36.85
4469;BME280;2247;42.666;23.292;2023-04-07T11:46:35;94195.47;;;11.57;36.50
4469;BME280;2247;42.666;23.292;2023-04-07T11:49:09;94189.22;;;11.71;35.92
4469;BME280;2247;42.666;23.292;2023-04-07T11:51:37;94184.81;;;11.67;36.56
4469;BME280;2247;42.666;23.292;2023-04-07T11:54:05;94184.41;;;11.55;36.88
4469;BME280;2247;42.666;23.292;2023-04-07T11:56:41;94188.16;;;11.49;37.06
4469;BME280;2247;42.666;23.292;2023-04-07T11:59:17;94180.13;;;11.35;37.59
4469;BME280;2247;42.666;23.292;2023-04-07T12:01:44;94182.22;;;11.38;37.82
4469;BME280;2247;42.666;23.292;2023-04-07T12:04:12;94191.44;;;11.40;37.90
4469;BME280;2247;42.666;23.292;2023-04-07T12:06:40;94187.06;;;11.55;37.39
4469;BME280;2247;42.666;23.292;2023-04-07T12:09:24;94189.50;;;11.75;37.43
4469;BME280;2247;42.666;23.292;2023-04-07T12:11:55;94169.28;;;11.84;36.65
4469;BME280;2247;42.666;23.292;2023-04-07T12:14:23;94172.81;;;11.98;36.50
4469;BME280;2247;42.666;23.292;2023-04-07T12:16:50;94179.75;;;11.94;36.53
4469;BME280;2247;42.666;23.292;2023-04-07T12:19:20;94187.03;;;12.02;36.76
4469;BME280;2247;42.666;23.292;2023-04-07T12:21:47;94171.38;;;11.87;35.84
4469;BME280;2247;42.666;23.292;2023-04-07T12:24:15;94179.47;;;11.96;35.97
4469;BME280;2247;42.666;23.292;2023-04-07T12:26:42;94182.00;;;11.82;36.21
4469;BME280;2247;42.666;23.292;2023-04-07T12:29:09;94173.50;;;11.85;36.32
4469;BME280;2247;42.666;23.292;2023-04-07T12:31:36;94182.72;;;11.64;36.74
4469;BME280;2247;42.666;23.292;2023-04-07T12:34:03;94180.25;;;11.49;37.22
4469;BME280;2247;42.666;23.292;2023-04-07T12:36:30;94181.94;;;11.39;36.92
4469;BME280;2247;42.666;23.292;2023-04-07T12:38:57;94170.94;;;11.32;37.30
4469;BME280;2247;42.666;23.292;2023-04-07T12:41:27;94182.22;;;11.38;37.35
4469;BME280;2247;42.666;23.292;2023-04-07T12:43:53;94186.38;;;11.44;36.83
4469;BME280;2247;42.666;23.292;2023-04-07T12:46:20;94177.16;;;11.41;37.25
4469;BME280;2247;42.666;23.292;2023-04-07T12:48:47;94176.25;;;11.27;37.46
4469;BME280;2247;42.666;23.292;2023-04-07T12:51:14;94186.78;;;11.32;37.70
4469;BME280;2247;42.666;23.292;2023-04-07T12:53:41;94181.19;;;11.58;37.20
4469;BME280;2247;42.666;23.292;2023-04-07T12:56:09;94151.34;;;11.38;37.32
4469;BME280;2247;42.666;23.292;2023-04-07T12:58:39;94183.53;;;11.40;37.86
4469;BME280;2247;42.666;23.292;2023-04-07T13:01:06;94177.94;;;11.42;37.75
4469;BME280;2247;42.666;23.292;2023-04-07T13:03:32;94185.66;;;11.38;37.67
4469;BME280;2247;42.666;23.292;2023-04-07T13:05:59;94183.00;;;11.38;37.64
4469;BME280;2247;42.666;23.292;2023-04-07T13:08:27;94198.22;;;11.47;37.68
4469;BME280;2247;42.666;23.292;2023-04-07T13:10:54;94197.03;;;11.58;38.06
4469;BME280;2247;42.666;23.292;2023-04-07T13:13:21;94195.22;;;11.82;37.25
4469;BME280;2247;42.666;23.292;2023-04-07T13:15:50;94195.50;;;11.99;36.99
4469;BME280;2247;42.666;23.292;2023-04-07T13:18:17;94195.09;;;12.11;36.51
4469;BME280;2247;42.666;23.292;2023-04-07T13:20:45;94197.19;;;11.90;37.32
4469;BME280;2247;42.666;23.292;2023-04-07T13:23:12;94189.97;;;11.77;37.24
4469;BME280;2247;42.666;23.292;2023-04-07T13:25:40;94183.91;;;11.53;37.50
4469;BME280;2247;42.666;23.292;2023-04-07T13:28:07;94201.34;;;11.49;38.29
4469;BME280;2247;42.666;23.292;2023-04-07T13:30:34;94199.47;;;11.54;37.96
4469;BME280;2247;42.666;23.292;2023-04-07T13:33:04;94208.53;;;11.43;38.23
4469;BME280;2247;42.666;23.292;2023-04-07T13:35:31;94205.56;;;11.50;38.22
4469;BME280;2247;42.666;23.292;2023-04-07T13:38:00;94200.97;;;11.36;38.29
4469;BME280;2247;42.666;23.292;2023-04-07T13:40:27;94224.03;;;11.26;38.78
4469;BME280;2247;42.666;23.292;2023-04-07T13:42:54;94216.13;;;11.26;38.70
4469;BME280;2247;42.666;23.292;2023-04-07T13:45:21;94213.03;;;11.14;38.72
4469;BME280;2247;42.666;23.292;2023-04-07T13:47:48;94222.84;;;11.08;39.05
4469;BME280;2247;42.666;23.292;2023-04-07T13:50:17;94229.91;;;11.18;38.71
4469;BME280;2247;42.666;23.292;2023-04-07T13:52:45;94226.78;;;11.11;39.26
4469;BME280;2247;42.666;23.292;2023-04-07T13:55:12;94235.19;;;11.18;39.16
4469;BME280;2247;42.666;23.292;2023-04-07T13:57:40;94243.41;;;11.11;39.52
4469;BME280;2247;42.666;23.292;2023-04-07T14:00:07;94245.56;;;11.04;39.96